トロンハイム の空港の天気 - METARとTAF

Trondheim / Vaernes ( ENVA / TRD ) - ノルウェー ヌール・トロンデラーグ県、Stjordal
飛行場実況気象(Metar)
観測時間11/27 09:20 CET (11/27 08:20 UTC)
風向・風速南東 6m/s
視程10km以上
天気現象
なし
気温8℃
湿度57%
気圧1015hPa
METARENVA 270820Z 14012KT 090V180 CAVOK 08/00 Q1015 TEMPO 15015G25KT RMK WIND 670FT 16027KT
過去の天気等 Google飛行場航空写真 Wunderground天気予報

過去48時間のMETAR

飛行場予報(TAF)
発表時間: -
27日7時 CET ~ 27日10時 CET に一時的に
風向・風速南南東 8m/s 瞬間風速 13m/s
27日9時 CET ~ 27日11時 CET に徐々に
風向・風速南南東 8m/s
27日11時 CET ~ 27日19時 CET に一時的に
風向・風速南 11m/s 瞬間風速 18m/s
27日19時 CET ~ 28日7時 CET に一時的に
風向・風速南 8m/s 瞬間風速 15m/s
TAF ENVA 2706/2806 10008KT CAVOK
TEMPO 2706/2709 15015G25KT
BECMG 2708/2710 16015KT
TEMPO 2710/2718 17022G35KT
TEMPO 2718/2806 17015G30KT